Time;durP1;ratioP1;P1;durP2;ratioP2;P2;SDS_P1;SDS_P2;PMS_P1;PMS_P2;Temp;Humidity;BMP_temperature;BMP_pressure;BME280_temperature;BME280_humidity;BME280_pressure;Samples;Min_cycle;Max_cycle;Signal;HPM_P1;HPM_P2
2022/03/25 00:01:46;;;;;;;68.28;41.78;;;2.40;99.90;;;;;;4987167;28;20045;-76
2022/03/25 00:04:17;;;;;;;71.60;40.72;;;2.40;99.90;;;;;;5003761;28;20053;-76
2022/03/25 00:06:44;;;;;;;64.43;39.20;;;2.30;99.90;;;;;;5002185;28;20090;-76
2022/03/25 00:09:11;;;;;;;59.25;38.45;;;2.40;99.90;;;;;;5004071;28;20112;-76
2022/03/25 00:11:38;;;;;;;67.57;38.67;;;2.60;99.90;;;;;;5012591;28;20076;-79
2022/03/25 00:14:05;;;;;;;75.88;40.05;;;2.70;99.90;;;;;;5003366;28;20571;-78
2022/03/25 00:16:32;;;;;;;63.85;40.08;;;2.50;99.90;;;;;;4993469;28;20161;-79
2022/03/25 00:18:59;;;;;;;63.50;38.35;;;2.50;99.90;;;;;;4972070;28;20421;-78
2022/03/25 00:21:25;;;;;;;66.13;38.78;;;2.40;99.90;;;;;;4986854;28;20069;-78
2022/03/25 00:23:52;;;;;;;65.43;39.00;;;2.30;99.90;;;;;;4999271;28;20049;-76
2022/03/25 00:26:19;;;;;;;63.65;40.10;;;2.30;99.90;;;;;;4996454;28;20053;-77
2022/03/25 00:28:46;;;;;;;69.65;41.38;;;2.10;99.90;;;;;;5005148;28;20136;-76
2022/03/25 00:31:13;;;;;;;59.05;37.88;;;2.00;99.90;;;;;;5007922;28;20054;-78
2022/03/25 00:33:42;;;;;;;60.92;39.80;;;1.90;99.90;;;;;;5016306;28;20049;-77
2022/03/25 00:36:10;;;;;;;61.35;38.03;;;1.90;99.90;;;;;;5014368;28;20041;-77
2022/03/25 00:38:37;;;;;;;70.13;40.55;;;1.90;99.90;;;;;;5002099;28;20049;-77
2022/03/25 00:41:07;;;;;;;63.58;38.00;;;1.90;99.90;;;;;;5025805;28;20048;-77
2022/03/25 00:43:34;;;;;;;55.35;38.17;;;1.90;99.90;;;;;;5013233;28;20049;-77
2022/03/25 00:46:02;;;;;;;58.95;38.30;;;2.10;99.90;;;;;;5019527;28;20080;-77
2022/03/25 00:48:29;;;;;;;69.95;39.72;;;2.00;99.90;;;;;;5009419;28;20053;-77
2022/03/25 00:50:57;;;;;;;58.13;37.13;;;2.00;99.90;;;;;;5004810;28;20050;-77
2022/03/25 00:53:25;;;;;;;68.95;40.28;;;2.00;99.90;;;;;;4979458;28;20223;-77
2022/03/25 00:55:52;;;;;;;67.07;39.03;;;1.80;99.90;;;;;;4970173;28;20052;-77
2022/03/25 00:58:21;;;;;;;66.38;38.42;;;1.60;99.90;;;;;;5003351;28;20049;-75
2022/03/25 01:00:48;;;;;;;64.38;37.65;;;1.60;99.90;;;;;;5000142;28;20092;-76
2022/03/25 01:03:15;;;;;;;61.72;35.72;;;1.50;99.90;;;;;;5002933;28;20512;-75
2022/03/25 01:05:43;;;;;;;57.53;36.97;;;1.50;99.90;;;;;;5002904;28;20084;-76
2022/03/25 01:08:11;;;;;;;58.85;36.22;;;1.50;99.90;;;;;;5000316;28;20049;-76
2022/03/25 01:10:38;;;;;;;57.50;36.20;;;1.50;99.90;;;;;;4972789;28;20081;-76
2022/03/25 01:13:06;;;;;;;58.13;34.80;;;1.50;99.90;;;;;;4997229;28;20076;-75
2022/03/25 01:15:34;;;;;;;60.15;37.33;;;1.50;99.90;;;;;;5006414;28;20069;-76
2022/03/25 01:18:01;;;;;;;62.55;37.42;;;1.40;99.90;;;;;;5003595;28;20601;-76
2022/03/25 01:20:29;;;;;;;66.13;38.38;;;1.40;99.90;;;;;;4968595;28;20045;-77
2022/03/25 01:22:56;;;;;;;77.43;38.55;;;1.30;99.90;;;;;;4974048;28;20740;-77
2022/03/25 01:25:24;;;;;;;65.15;37.88;;;1.30;99.90;;;;;;4981170;28;20735;-76
2022/03/25 01:27:52;;;;;;;58.70;38.42;;;1.30;99.90;;;;;;4972093;28;20077;-79
2022/03/25 01:30:20;;;;;;;59.13;37.72;;;1.30;99.90;;;;;;4990726;28;20046;-78
2022/03/25 01:32:47;;;;;;;60.97;37.03;;;1.20;99.90;;;;;;5001095;28;20066;-76
2022/03/25 01:35:14;;;;;;;56.35;37.58;;;1.20;99.90;;;;;;5001782;28;20088;-78
2022/03/25 01:37:41;;;;;;;55.72;35.40;;;1.10;99.90;;;;;;4994987;28;20057;-78
2022/03/25 01:40:09;;;;;;;59.22;37.75;;;1.00;99.90;;;;;;4984707;28;20041;-76
2022/03/25 01:42:39;;;;;;;61.28;35.67;;;1.00;99.90;;;;;;4979415;28;20045;-76
2022/03/25 01:45:06;;;;;;;54.63;34.28;;;1.00;99.90;;;;;;4968410;28;20677;-77
2022/03/25 01:47:34;;;;;;;58.63;35.47;;;1.00;99.90;;;;;;4985003;28;20615;-76
2022/03/25 01:50:02;;;;;;;64.78;36.15;;;0.90;99.90;;;;;;4984331;28;20535;-78
2022/03/25 01:52:29;;;;;;;60.95;36.40;;;0.90;99.90;;;;;;4984882;28;20037;-78
2022/03/25 01:55:15;;;;;;;55.33;35.08;;;1.00;99.90;;;;;;4965385;28;20149;-78
2022/03/25 01:57:43;;;;;;;60.90;35.40;;;1.00;99.90;;;;;;4965205;28;20069;-78
2022/03/25 02:00:13;;;;;;;61.22;34.60;;;1.10;99.90;;;;;;4980593;28;20581;-76
2022/03/25 02:02:48;;;;;;;59.45;35.10;;;1.00;99.90;;;;;;5002574;28;20054;-78
2022/03/25 02:05:15;;;;;;;59.03;34.83;;;1.00;99.90;;;;;;4984369;28;20077;-79
2022/03/25 02:07:44;;;;;;;57.97;35.50;;;1.00;99.90;;;;;;4984131;28;20748;-76
2022/03/25 02:10:10;;;;;;;62.03;34.88;;;1.00;99.90;;;;;;4984910;28;20050;-78
2022/03/25 02:12:41;;;;;;;57.60;34.45;;;1.00;99.90;;;;;;4994770;28;20046;-78
2022/03/25 02:15:08;;;;;;;56.83;34.90;;;1.00;99.90;;;;;;5003477;28;20041;-78
2022/03/25 02:17:35;;;;;;;56.30;34.83;;;0.80;99.90;;;;;;5004377;28;20474;-76
2022/03/25 02:20:08;;;;;;;56.20;33.95;;;0.80;99.90;;;;;;4972027;28;20633;-77
2022/03/25 02:22:39;;;;;;;64.05;35.92;;;0.80;99.90;;;;;;4984013;28;20447;-76
2022/03/25 02:25:10;;;;;;;61.85;35.80;;;0.70;99.90;;;;;;4984191;28;20073;-77
2022/03/25 02:27:39;;;;;;;63.22;34.72;;;0.60;99.90;;;;;;4983798;28;20046;-76
2022/03/25 02:30:07;;;;;;;59.97;34.38;;;0.60;99.90;;;;;;4988736;28;20136;-76
2022/03/25 02:32:36;;;;;;;56.85;34.08;;;0.60;99.90;;;;;;5000864;28;20689;-76
2022/03/25 02:35:03;;;;;;;58.42;35.13;;;0.60;99.90;;;;;;5000203;28;20041;-76
2022/03/25 02:37:30;;;;;;;54.17;33.83;;;0.60;99.90;;;;;;5000075;28;20042;-76
2022/03/25 02:39:57;;;;;;;56.42;34.83;;;0.60;99.90;;;;;;4992290;28;20076;-78
2022/03/25 02:42:24;;;;;;;55.03;34.58;;;0.60;99.90;;;;;;4992684;28;20042;-76
2022/03/25 02:44:51;;;;;;;48.85;32.95;;;0.60;99.90;;;;;;4989546;28;20476;-76
2022/03/25 02:47:18;;;;;;;59.42;34.65;;;0.60;99.90;;;;;;4964428;28;20101;-76
2022/03/25 02:49:45;;;;;;;64.18;34.72;;;0.60;99.90;;;;;;4990382;28;20045;-76
2022/03/25 02:52:12;;;;;;;58.42;34.05;;;0.70;99.90;;;;;;5001124;28;20053;-76
2022/03/25 02:54:38;;;;;;;59.92;35.13;;;0.70;99.90;;;;;;4983681;28;20085;-75
2022/03/25 02:57:05;;;;;;;56.60;33.35;;;0.70;99.90;;;;;;4982223;28;20061;-76
2022/03/25 02:59:32;;;;;;;51.05;31.80;;;0.60;99.90;;;;;;4982365;28;20117;-76
2022/03/25 03:01:59;;;;;;;49.42;31.85;;;0.60;99.90;;;;;;4979057;28;20034;-76
2022/03/25 03:04:27;;;;;;;56.47;32.42;;;0.50;99.90;;;;;;4999904;28;20042;-76
2022/03/25 03:06:54;;;;;;;53.50;32.45;;;0.40;99.90;;;;;;5003857;28;20058;-77
2022/03/25 03:09:21;;;;;;;59.10;33.97;;;0.40;99.90;;;;;;4985482;28;20058;-76
2022/03/25 03:11:47;;;;;;;61.08;35.00;;;0.30;99.90;;;;;;5004827;28;20041;-75
2022/03/25 03:14:14;;;;;;;56.67;35.88;;;0.30;99.90;;;;;;5003817;28;20058;-76
2022/03/25 03:16:41;;;;;;;54.75;33.78;;;0.30;99.90;;;;;;5005432;28;20053;-78
2022/03/25 03:19:08;;;;;;;53.13;32.88;;;0.30;99.90;;;;;;5004434;28;20152;-78
2022/03/25 03:21:35;;;;;;;55.47;31.83;;;0.20;99.90;;;;;;4986637;28;20049;-76
2022/03/25 03:24:02;;;;;;;53.20;31.65;;;0.30;99.90;;;;;;4988072;28;20136;-76
2022/03/25 03:26:29;;;;;;;54.20;32.63;;;0.40;99.90;;;;;;5004641;28;20084;-76
2022/03/25 03:28:56;;;;;;;51.33;31.95;;;0.40;99.90;;;;;;4986797;28;20077;-76
2022/03/25 03:31:22;;;;;;;55.95;31.00;;;0.50;99.90;;;;;;5004269;28;20104;-78
2022/03/25 03:33:49;;;;;;;55.55;29.98;;;0.60;99.90;;;;;;4986142;28;20046;-76
2022/03/25 03:36:16;;;;;;;47.65;29.90;;;0.60;99.90;;;;;;5004785;28;20688;-79
2022/03/25 03:38:43;;;;;;;46.03;28.60;;;0.50;99.90;;;;;;5005657;28;20046;-78
2022/03/25 03:41:10;;;;;;;56.20;31.33;;;0.30;99.90;;;;;;4991780;28;20085;-76
2022/03/25 03:43:36;;;;;;;52.78;28.90;;;0.40;99.90;;;;;;4987480;28;20034;-78
2022/03/25 03:46:03;;;;;;;45.78;28.52;;;0.30;99.90;;;;;;4987424;28;20054;-76
2022/03/25 03:48:31;;;;;;;41.78;29.67;;;0.30;99.90;;;;;;5004645;28;20068;-77
2022/03/25 03:50:58;;;;;;;43.47;27.63;;;0.30;99.90;;;;;;5006209;28;20459;-78
2022/03/25 03:53:25;;;;;;;48.65;30.17;;;0.30;99.90;;;;;;4986466;28;20054;-77
2022/03/25 03:55:52;;;;;;;46.92;28.25;;;0.30;99.90;;;;;;5005123;28;20122;-76
2022/03/25 03:58:18;;;;;;;42.80;28.90;;;0.20;99.90;;;;;;5005326;28;20058;-78
2022/03/25 04:00:45;;;;;;;47.70;29.58;;;0.20;99.90;;;;;;4985489;28;20066;-76
2022/03/25 04:03:12;;;;;;;44.20;29.88;;;0.20;99.90;;;;;;4970395;28;20062;-78
2022/03/25 04:05:39;;;;;;;48.63;29.73;;;0.20;99.90;;;;;;5004382;28;20041;-76
2022/03/25 04:08:08;;;;;;;46.10;29.55;;;0.30;99.90;;;;;;4985858;28;20065;-79
2022/03/25 04:10:35;;;;;;;45.00;28.23;;;0.20;99.90;;;;;;4989654;28;20136;-78
2022/03/25 04:13:02;;;;;;;48.17;29.90;;;0.10;99.90;;;;;;5017136;28;20111;-78
2022/03/25 04:15:30;;;;;;;45.70;28.80;;;0.20;99.90;;;;;;5024124;28;20095;-76
2022/03/25 04:17:58;;;;;;;49.63;28.33;;;0.10;99.90;;;;;;5023016;28;20084;-76
2022/03/25 04:20:25;;;;;;;50.55;28.67;;;0.30;99.90;;;;;;5018122;28;20065;-79
2022/03/25 04:22:52;;;;;;;47.35;28.38;;;0.50;99.90;;;;;;5010575;28;20053;-77
2022/03/25 04:25:19;;;;;;;45.70;28.73;;;0.60;99.90;;;;;;4986291;28;20116;-78
2022/03/25 04:27:50;;;;;;;38.92;26.90;;;0.70;99.90;;;;;;5004149;28;20088;-76
2022/03/25 04:30:22;;;;;;;37.08;26.85;;;0.60;99.90;;;;;;5002755;28;20539;-79
2022/03/25 04:32:49;;;;;;;43.67;28.13;;;0.40;99.90;;;;;;5003246;28;20050;-78
2022/03/25 04:35:17;;;;;;;41.90;27.23;;;0.50;99.90;;;;;;5003662;28;20132;-78
2022/03/25 04:37:44;;;;;;;42.65;26.40;;;0.70;99.90;;;;;;4986441;28;20460;-78
2022/03/25 04:40:12;;;;;;;37.78;24.75;;;0.80;99.90;;;;;;5005758;23;20081;-72
2022/03/25 04:42:39;;;;;;;37.92;24.40;;;0.80;99.90;;;;;;4993588;28;20152;-71
2022/03/25 04:45:06;;;;;;;32.17;23.80;;;0.70;99.90;;;;;;4957878;28;20050;-72
2022/03/25 04:47:33;;;;;;;37.17;25.20;;;0.60;99.90;;;;;;4989892;28;20597;-72
2022/03/25 04:50:00;;;;;;;36.45;25.90;;;0.50;99.90;;;;;;4973726;28;20042;-72
2022/03/25 04:52:27;;;;;;;36.67;25.42;;;0.40;99.90;;;;;;4990273;28;20045;-72
2022/03/25 04:54:54;;;;;;;34.53;25.52;;;0.30;99.90;;;;;;4993870;28;20046;-72
2022/03/25 04:57:21;;;;;;;35.33;25.75;;;0.30;99.90;;;;;;4976469;28;20125;-72
2022/03/25 04:59:48;;;;;;;38.25;25.00;;;0.30;99.90;;;;;;4975651;28;20119;-71
2022/03/25 05:02:15;;;;;;;43.20;26.80;;;0.20;99.90;;;;;;4975271;28;20073;-71
2022/03/25 05:04:42;;;;;;;33.67;26.42;;;0.10;99.90;;;;;;4995324;28;20038;-71
2022/03/25 05:07:16;;;;;;;38.80;26.77;;;0.00;99.90;;;;;;4993428;28;20369;-71
2022/03/25 05:09:44;;;;;;;46.97;28.52;;;0.00;99.90;;;;;;4992275;28;20351;-71
2022/03/25 05:12:14;;;;;;;50.28;28.58;;;0.00;99.90;;;;;;4993236;28;20603;-72
2022/03/25 05:14:41;;;;;;;34.55;26.92;;;-0.10;99.90;;;;;;4977169;28;20053;-72
2022/03/25 05:17:08;;;;;;;38.78;28.58;;;0.00;99.90;;;;;;4993871;28;20454;-71
2022/03/25 05:19:34;;;;;;;36.75;27.77;;;0.00;99.90;;;;;;4993405;28;20049;-71
2022/03/25 05:22:05;;;;;;;43.28;28.30;;;0.00;99.90;;;;;;4972344;28;20041;-71
2022/03/25 05:24:32;;;;;;;39.22;27.10;;;-0.10;99.90;;;;;;4992255;28;20566;-74
2022/03/25 05:26:59;;;;;;;42.58;26.20;;;-0.10;99.90;;;;;;4976378;28;20152;-73
2022/03/25 05:29:27;;;;;;;38.67;26.65;;;-0.10;99.90;;;;;;4976054;28;20203;-71
2022/03/25 05:31:54;;;;;;;38.08;26.75;;;-0.10;99.90;;;;;;4993552;28;20061;-73
2022/03/25 05:34:21;;;;;;;37.70;27.70;;;-0.20;99.90;;;;;;4993296;28;20367;-73
2022/03/25 05:36:48;;;;;;;47.92;27.80;;;0.00;99.90;;;;;;4992544;28;20509;-72
2022/03/25 05:39:15;;;;;;;40.78;27.90;;;-0.10;99.90;;;;;;4993133;28;20434;-72
2022/03/25 05:41:42;;;;;;;33.40;26.27;;;0.00;99.90;;;;;;4991974;28;20286;-75
2022/03/25 05:44:09;;;;;;;39.65;27.75;;;0.00;99.90;;;;;;4976625;28;20046;-72
2022/03/25 05:46:38;;;;;;;38.22;26.70;;;0.00;99.90;;;;;;4976687;28;20598;-71
2022/03/25 05:49:05;;;;;;;40.05;26.20;;;0.00;99.90;;;;;;5004762;28;20049;-71
2022/03/25 05:51:32;;;;;;;31.83;25.58;;;0.00;99.90;;;;;;4978080;28;20351;-71
2022/03/25 05:53:59;;;;;;;42.90;28.13;;;0.00;99.90;;;;;;4991196;28;20053;-71
2022/03/25 05:56:26;;;;;;;36.75;27.30;;;0.10;99.90;;;;;;4976764;28;20053;-71
2022/03/25 05:58:53;;;;;;;40.40;28.27;;;0.10;99.90;;;;;;4975462;28;20057;-71
2022/03/25 06:01:19;;;;;;;44.03;29.63;;;0.10;99.90;;;;;;4992495;28;20053;-72
2022/03/25 06:03:46;;;;;;;36.20;26.88;;;0.20;99.90;;;;;;4993079;28;20149;-71
2022/03/25 06:06:14;;;;;;;38.35;27.05;;;0.40;99.90;;;;;;4991355;28;20111;-71
2022/03/25 06:08:41;;;;;;;51.60;29.00;;;0.50;99.90;;;;;;4971871;28;20077;-72
2022/03/25 06:11:08;;;;;;;49.85;28.40;;;0.40;99.90;;;;;;4991240;28;20232;-72
2022/03/25 06:13:34;;;;;;;40.28;27.05;;;0.40;99.90;;;;;;5002097;28;20629;-72
2022/03/25 06:16:01;;;;;;;37.92;27.65;;;0.60;99.90;;;;;;4975305;28;20092;-73
2022/03/25 06:18:28;;;;;;;41.83;28.50;;;0.70;99.90;;;;;;4975265;28;20141;-72
2022/03/25 06:20:55;;;;;;;34.45;26.80;;;0.70;99.90;;;;;;4989059;28;20046;-72
2022/03/25 06:23:22;;;;;;;40.13;27.38;;;0.70;99.90;;;;;;4990440;28;20060;-71
2022/03/25 06:25:49;;;;;;;37.63;27.92;;;0.80;99.90;;;;;;4972355;28;20053;-70
2022/03/25 06:28:16;;;;;;;39.55;27.55;;;0.90;99.90;;;;;;4975669;28;20042;-70
2022/03/25 06:30:43;;;;;;;34.25;26.48;;;1.00;99.90;;;;;;4984770;28;20562;-70
2022/03/25 06:33:11;;;;;;;34.40;27.70;;;1.10;99.90;;;;;;4973030;28;20045;-71
2022/03/25 06:35:39;;;;;;;40.55;27.65;;;1.40;99.90;;;;;;4974420;28;20343;-71
2022/03/25 06:38:07;;;;;;;38.05;27.10;;;1.50;99.90;;;;;;4994422;28;20050;-71
2022/03/25 06:40:34;;;;;;;46.83;29.38;;;1.70;99.90;;;;;;4989691;28;20071;-71
2022/03/25 06:43:02;;;;;;;53.28;29.85;;;1.80;99.90;;;;;;4975164;28;20502;-71
2022/03/25 06:45:29;;;;;;;41.40;28.52;;;1.80;99.90;;;;;;4991842;28;20045;-71
2022/03/25 06:47:57;;;;;;;39.30;28.13;;;1.80;99.90;;;;;;4993730;28;20085;-71
2022/03/25 06:50:24;;;;;;;38.90;29.30;;;1.80;99.90;;;;;;4974899;28;20257;-72
2022/03/25 06:52:52;;;;;;;39.92;29.88;;;1.90;99.90;;;;;;4974888;28;20558;-71
2022/03/25 06:55:19;;;;;;;35.22;27.92;;;2.00;99.90;;;;;;4989011;28;20046;-71
2022/03/25 06:57:48;;;;;;;37.90;29.80;;;2.10;99.90;;;;;;4986994;28;20323;-71
2022/03/25 07:00:17;;;;;;;38.22;28.83;;;2.20;99.90;;;;;;4988374;28;20048;-71
2022/03/25 07:02:44;;;;;;;38.13;30.00;;;2.30;99.90;;;;;;4989888;28;20044;-71
2022/03/25 07:05:12;;;;;;;41.17;30.13;;;2.50;99.90;;;;;;4988110;28;20373;-71
2022/03/25 07:07:41;;;;;;;37.47;29.38;;;2.60;99.90;;;;;;4987365;28;20030;-71
2022/03/25 07:10:10;;;;;;;37.80;30.48;;;2.80;99.90;;;;;;4971834;28;20054;-72
2022/03/25 07:12:38;;;;;;;40.60;29.90;;;3.00;99.90;;;;;;5006314;28;20049;-72
2022/03/25 07:15:07;;;;;;;37.22;30.17;;;3.10;99.90;;;;;;4974267;28;20355;-72
2022/03/25 07:17:35;;;;;;;41.95;33.50;;;3.30;99.90;;;;;;4972957;28;20050;-72
2022/03/25 07:20:03;;;;;;;40.90;32.65;;;3.50;99.90;;;;;;4971257;28;20041;-72
2022/03/25 07:22:30;;;;;;;47.33;31.80;;;3.70;99.90;;;;;;4989867;28;20112;-72
2022/03/25 07:24:56;;;;;;;39.72;32.00;;;3.90;99.90;;;;;;4972845;28;20046;-72
2022/03/25 07:27:23;;;;;;;43.63;33.05;;;4.10;99.90;;;;;;4972441;28;20803;-72
2022/03/25 07:29:50;;;;;;;39.75;33.55;;;4.30;99.90;;;;;;4973627;28;20049;-73
2022/03/25 07:32:17;;;;;;;42.88;33.35;;;4.50;99.90;;;;;;4987054;28;20050;-72
2022/03/25 07:34:44;;;;;;;45.00;32.85;;;4.90;99.90;;;;;;4990044;28;20046;-72
2022/03/25 07:37:11;;;;;;;44.30;31.95;;;5.20;99.90;;;;;;4990287;28;20780;-72
2022/03/25 07:39:37;;;;;;;38.00;32.83;;;5.80;99.90;;;;;;4982300;28;20537;-73
2022/03/25 07:42:04;;;;;;;38.97;35.05;;;6.70;99.90;;;;;;4998644;28;20197;-72
2022/03/25 07:44:31;;;;;;;38.40;34.45;;;7.90;99.90;;;;;;4991993;28;20261;-71
2022/03/25 07:46:58;;;;;;;40.47;36.22;;;9.30;99.90;;;;;;4990704;28;20140;-72
2022/03/25 07:49:25;;;;;;;39.97;36.03;;;10.30;99.90;;;;;;4971774;28;20461;-71
2022/03/25 07:51:51;;;;;;;40.30;36.22;;;10.90;99.90;;;;;;4989720;28;20080;-72
2022/03/25 07:54:18;;;;;;;41.92;37.95;;;11.20;99.90;;;;;;4973310;28;20060;-72
2022/03/25 07:56:45;;;;;;;41.38;37.25;;;11.50;99.90;;;;;;4990798;28;20089;-73
2022/03/25 07:59:12;;;;;;;39.65;35.78;;;11.70;99.90;;;;;;4977153;28;20058;-71
2022/03/25 08:01:39;;;;;;;40.75;36.90;;;11.50;97.10;;;;;;4974079;28;20141;-73
2022/03/25 08:04:06;;;;;;;40.28;36.45;;;11.50;99.00;;;;;;4973882;28;20109;-72
2022/03/25 08:06:33;;;;;;;42.30;37.95;;;11.60;97.20;;;;;;4956393;28;20048;-72
2022/03/25 08:09:01;;;;;;;42.55;38.10;;;11.80;97.60;;;;;;4993844;28;20053;-72
2022/03/25 08:11:28;;;;;;;43.88;39.42;;;11.90;96.40;;;;;;4989243;28;20081;-74
2022/03/25 08:13:55;;;;;;;62.22;54.78;;;11.90;95.50;;;;;;4976437;28;20230;-72
2022/03/25 08:16:22;;;;;;;45.63;40.85;;;12.00;96.60;;;;;;4975370;28;20045;-70
2022/03/25 08:18:49;;;;;;;43.67;39.33;;;12.50;95.40;;;;;;4972324;28;20054;-72
2022/03/25 08:21:15;;;;;;;41.13;37.05;;;12.60;95.10;;;;;;4972175;28;20070;-72
2022/03/25 08:29:13;;;;;;;43.00;38.90;;;12.80;94.20;;;;;;4957784;28;20050;-73
2022/03/25 08:31:45;;;;;;;41.88;38.00;;;13.30;93.30;;;;;;4991589;28;20049;-73
2022/03/25 08:34:14;;;;;;;42.17;37.97;;;13.60;93.60;;;;;;4976242;28;20041;-73
2022/03/25 08:36:43;;;;;;;43.90;39.50;;;13.60;92.50;;;;;;4975300;28;20049;-74
2022/03/25 08:39:11;;;;;;;45.45;40.72;;;13.30;91.70;;;;;;4996123;28;20739;-75
2022/03/25 08:41:38;;;;;;;43.75;39.13;;;13.10;92.70;;;;;;4972109;28;20069;-71
2022/03/25 08:44:06;;;;;;;44.03;39.50;;;12.80;91.90;;;;;;4991779;28;20255;-71
2022/03/25 08:46:34;;;;;;;43.08;39.08;;;13.20;92.70;;;;;;4992087;28;20142;-72
2022/03/25 08:49:04;;;;;;;45.45;40.90;;;13.60;92.30;;;;;;4989633;28;20054;-71
2022/03/25 08:51:31;;;;;;;46.88;42.20;;;13.70;92.50;;;;;;4988416;28;20096;-71
2022/03/25 08:53:58;;;;;;;44.40;40.13;;;13.70;91.60;;;;;;4985736;28;20219;-71
2022/03/25 08:56:25;;;;;;;44.33;39.78;;;13.70;92.10;;;;;;4990960;28;20042;-71
2022/03/25 08:58:54;;;;;;;44.35;40.10;;;13.80;92.20;;;;;;4991299;28;20050;-72
2022/03/25 09:01:22;;;;;;;45.83;41.45;;;13.90;92.00;;;;;;4976699;28;20046;-72
2022/03/25 09:03:49;;;;;;;45.65;41.33;;;13.70;92.20;;;;;;4991909;28;20049;-71
2022/03/25 09:06:17;;;;;;;46.97;42.38;;;13.90;91.30;;;;;;4988082;28;20050;-74
2022/03/25 09:08:44;;;;;;;46.38;41.67;;;13.70;90.90;;;;;;4972543;28;20060;-75
2022/03/25 09:11:11;;;;;;;46.42;42.00;;;13.60;91.40;;;;;;4987330;28;20129;-73
2022/03/25 09:13:40;;;;;;;45.63;41.03;;;13.80;90.80;;;;;;4986283;28;20151;-71
2022/03/25 09:16:07;;;;;;;46.03;41.67;;;13.80;90.60;;;;;;4991913;28;20038;-72
2022/03/25 09:18:34;;;;;;;45.45;41.17;;;13.50;92.10;;;;;;4973733;28;20081;-73
2022/03/25 09:21:01;;;;;;;46.38;41.88;;;13.90;91.00;;;;;;4980565;28;20053;-72
2022/03/25 09:23:28;;;;;;;47.05;42.00;;;13.80;91.10;;;;;;4982628;28;20069;-74
2022/03/25 09:25:55;;;;;;;46.85;42.15;;;13.80;91.20;;;;;;4973199;28;20329;-73
2022/03/25 09:28:22;;;;;;;46.03;41.38;;;14.00;90.20;;;;;;4974370;28;20060;-71
2022/03/25 09:30:49;;;;;;;45.40;40.72;;;14.00;91.30;;;;;;4969407;28;20108;-74
2022/03/25 09:33:15;;;;;;;45.03;40.10;;;14.00;91.10;;;;;;4974076;28;20210;-72
2022/03/25 09:35:44;;;;;;;44.88;40.33;;;13.90;90.70;;;;;;4973259;28;20382;-72
2022/03/25 09:38:11;;;;;;;45.78;40.78;;;13.70;90.20;;;;;;4992138;28;20065;-73
2022/03/25 09:40:43;;;;;;;46.95;42.25;;;13.90;90.50;;;;;;4965318;28;20057;-71
2022/03/25 09:43:11;;;;;;;44.45;39.83;;;13.90;90.20;;;;;;4971969;28;21127;-72
2022/03/25 09:45:38;;;;;;;45.00;40.63;;;14.30;90.60;;;;;;4989897;28;20057;-71
2022/03/25 09:48:05;;;;;;;44.22;39.50;;;14.30;89.10;;;;;;4978502;28;20345;-72
2022/03/25 09:50:37;;;;;;;44.78;40.60;;;14.50;88.80;;;;;;4983417;28;20409;-72
2022/03/25 09:53:05;;;;;;;44.25;39.67;;;14.00;88.10;;;;;;4971798;28;20940;-72
2022/03/25 09:55:40;;;;;;;43.85;39.72;;;13.80;90.00;;;;;;4972169;28;20057;-74
2022/03/25 09:58:11;;;;;;;43.43;39.27;;;13.70;89.00;;;;;;4974617;28;20168;-74
2022/03/25 10:00:38;;;;;;;44.72;40.10;;;13.50;90.40;;;;;;4972096;28;20347;-72
2022/03/25 10:03:05;;;;;;;44.97;40.22;;;13.90;90.60;;;;;;4992330;28;20045;-72
2022/03/25 10:05:36;;;;;;;46.65;42.08;;;14.30;91.10;;;;;;4971007;28;20057;-73
2022/03/25 10:08:04;;;;;;;46.83;41.90;;;14.30;90.30;;;;;;4973816;28;20132;-73
2022/03/25 10:10:31;;;;;;;46.92;42.35;;;14.50;90.80;;;;;;4990809;28;20046;-71
2022/03/25 10:13:03;;;;;;;47.47;42.30;;;14.40;91.20;;;;;;4978421;28;20053;-74
2022/03/25 10:15:38;;;;;;;46.63;42.17;;;14.50;91.40;;;;;;4991238;28;20342;-72
2022/03/25 10:18:07;;;;;;;49.23;44.43;;;14.80;91.80;;;;;;4975331;28;20139;-74
2022/03/25 10:20:43;;;;;;;48.83;44.33;;;14.70;92.20;;;;;;4989878;28;20115;-73
2022/03/25 10:23:17;;;;;;;49.17;44.60;;;14.20;92.10;;;;;;4972262;28;20076;-74
2022/03/25 10:25:48;;;;;;;49.28;44.20;;;13.90;93.10;;;;;;4991507;28;20046;-72
2022/03/25 10:28:29;;;;;;;48.22;43.63;;;14.00;92.50;;;;;;4975219;28;20068;-73
2022/03/25 10:31:25;;;;;;;50.25;45.30;;;13.90;93.50;;;;;;4990436;28;20041;-72
2022/03/25 10:33:59;;;;;;;50.30;45.30;;;14.40;93.00;;;;;;4957997;28;20053;-73
2022/03/25 10:36:27;;;;;;;51.27;46.57;;;14.40;93.30;;;;;;4973856;28;20425;-73
2022/03/25 10:38:58;;;;;;;50.90;46.00;;;14.30;93.60;;;;;;5006338;23;20053;-71
2022/03/25 10:41:36;;;;;;;50.42;45.60;;;14.50;94.00;;;;;;4982889;28;20050;-70
2022/03/25 10:44:05;;;;;;;50.08;45.22;;;14.90;94.10;;;;;;4989941;28;20736;-73
2022/03/25 10:46:46;;;;;;;47.83;43.35;;;15.00;93.10;;;;;;4956235;28;20050;-69
2022/03/25 10:49:15;;;;;;;48.97;44.67;;;14.90;93.60;;;;;;4990002;28;20053;-72
2022/03/25 10:51:44;;;;;;;50.92;45.35;;;14.80;94.00;;;;;;4989968;28;20295;-69
2022/03/25 10:54:13;;;;;;;51.15;46.42;;;14.60;93.90;;;;;;4973071;28;20469;-70
2022/03/25 10:56:51;;;;;;;49.03;44.60;;;14.60;94.30;;;;;;4973587;28;20866;-74
2022/03/25 10:59:34;;;;;;;46.10;42.17;;;14.90;94.20;;;;;;4957093;28;20049;-71
2022/03/25 11:02:04;;;;;;;46.67;42.70;;;15.00;92.60;;;;;;4989431;28;20061;-70
2022/03/25 11:04:31;;;;;;;47.90;43.72;;;15.30;92.20;;;;;;4990006;28;20104;-69
2022/03/25 11:07:01;;;;;;;49.88;45.47;;;14.90;92.60;;;;;;4971520;28;20061;-70
2022/03/25 11:09:28;;;;;;;49.80;45.13;;;14.80;94.10;;;;;;4990901;28;20474;-70
2022/03/25 11:11:58;;;;;;;51.83;46.67;;;15.00;93.80;;;;;;4953788;28;20042;-71
2022/03/25 11:14:25;;;;;;;49.35;45.05;;;14.90;93.00;;;;;;4956910;28;20038;-69
2022/03/25 11:16:55;;;;;;;51.47;46.95;;;15.10;93.40;;;;;;4971757;28;20081;-70
2022/03/25 11:19:23;;;;;;;50.13;45.17;;;15.00;93.70;;;;;;4937575;28;20058;-72
2022/03/25 11:21:51;;;;;;;51.53;46.72;;;15.30;93.60;;;;;;4970774;28;20116;-72
2022/03/25 11:24:24;;;;;;;50.53;45.97;;;15.30;93.50;;;;;;4988328;28;20058;-69
2022/03/25 11:26:53;;;;;;;50.28;45.65;;;15.50;93.70;;;;;;4991777;28;20403;-73
2022/03/25 11:29:31;;;;;;;49.58;44.47;;;15.60;93.30;;;;;;4976339;28;20050;-71
2022/03/25 11:32:12;;;;;;;50.53;45.33;;;15.50;92.50;;;;;;4976802;28;20058;-70
2022/03/25 11:34:54;;;;;;;51.47;46.47;;;15.30;93.20;;;;;;4994849;28;20460;-72
2022/03/25 11:37:32;;;;;;;51.72;46.47;;;15.20;92.90;;;;;;4990592;28;20141;-71
2022/03/25 11:40:20;;;;;;;53.30;48.00;;;15.10;93.70;;;;;;4972921;28;20687;-71
2022/03/25 11:42:52;;;;;;;51.38;46.63;;;15.50;94.00;;;;;;4984634;28;20049;-73
2022/03/25 11:45:21;;;;;;;52.72;47.65;;;15.50;93.40;;;;;;4994109;28;20093;-71
2022/03/25 11:47:57;;;;;;;55.63;50.20;;;15.30;93.70;;;;;;4995059;28;20454;-71
2022/03/25 11:50:27;;;;;;;51.65;46.72;;;15.30;93.00;;;;;;4976042;28;20231;-71
2022/03/25 11:52:53;;;;;;;53.60;48.35;;;15.10;92.80;;;;;;4993703;28;20672;-72
2022/03/25 11:55:21;;;;;;;52.78;47.55;;;15.00;92.80;;;;;;4993576;28;20076;-70
2022/03/25 11:57:48;;;;;;;53.88;49.13;;;15.10;92.80;;;;;;4960356;28;20054;-70
2022/03/25 12:00:26;;;;;;;51.42;46.53;;;15.00;93.40;;;;;;4975223;28;20149;-71
2022/03/25 12:03:04;;;;;;;53.67;48.65;;;15.30;93.50;;;;;;4960667;28;20045;-68
2022/03/25 12:05:35;;;;;;;53.45;48.40;;;15.40;93.50;;;;;;4974283;28;20482;-70
2022/03/25 12:08:21;;;;;;;54.65;49.45;;;15.50;92.60;;;;;;4975681;28;20042;-72
2022/03/25 12:10:52;;;;;;;53.45;47.90;;;15.80;92.50;;;;;;4990739;28;20064;-71
2022/03/25 12:13:21;;;;;;;55.03;49.63;;;15.70;93.40;;;;;;4969213;28;20105;-70
2022/03/25 12:15:51;;;;;;;54.67;49.30;;;15.30;93.50;;;;;;4963191;28;20576;-71
2022/03/25 12:18:38;;;;;;;53.15;48.33;;;15.60;93.40;;;;;;4949219;28;20422;-71
2022/03/25 12:21:09;;;;;;;54.60;49.38;;;15.80;93.70;;;;;;4954221;28;20050;-72
2022/03/25 12:23:37;;;;;;;57.33;51.33;;;15.40;93.60;;;;;;4968074;28;20101;-72
2022/03/25 12:26:05;;;;;;;55.55;50.50;;;15.60;93.70;;;;;;4992772;28;20046;-72
2022/03/25 12:28:31;;;;;;;54.78;48.92;;;15.60;95.10;;;;;;4969210;28;20632;-72
2022/03/25 12:31:04;;;;;;;56.25;50.38;;;15.70;94.00;;;;;;4958979;28;20046;-70
2022/03/25 12:33:31;;;;;;;55.30;49.60;;;15.30;94.70;;;;;;4985585;28;20080;-69
2022/03/25 12:36:03;;;;;;;57.42;51.20;;;15.40;94.00;;;;;;4965095;28;20046;-71
2022/03/25 12:38:30;;;;;;;56.88;50.88;;;15.50;94.90;;;;;;4976620;28;20050;-70
2022/03/25 12:40:57;;;;;;;56.03;50.50;;;16.00;93.80;;;;;;4963112;28;20050;-70
2022/03/25 12:43:44;;;;;;;57.55;51.60;;;16.30;93.30;;;;;;4978650;28;20045;-73
2022/03/25 12:46:11;;;;;;;56.60;50.60;;;16.70;92.70;;;;;;4983277;28;20046;-72